createdAt,value
2019-03-15T00:07:56.249Z,97459.00
2019-03-15T00:10:37.681Z,97499.00
2019-03-15T00:13:18.819Z,97384.00
2019-03-15T00:16:00.203Z,97452.00
2019-03-15T00:25:08.356Z,97345.00
2019-03-15T00:27:50.114Z,97460.00
2019-03-15T00:30:49.758Z,97456.00
2019-03-15T00:33:50.677Z,97462.00
2019-03-15T00:36:52.172Z,97476.00
2019-03-15T00:52:09.285Z,97483.00
2019-03-15T00:58:07.322Z,97490.00
2019-03-15T01:00:48.043Z,97497.00
2019-03-15T01:06:37.862Z,97496.00
2019-03-15T01:12:37.814Z,97517.00
2019-03-15T01:15:19.306Z,97504.00
2019-03-15T01:18:00.873Z,97516.00
2019-03-15T01:20:41.629Z,97497.00
2019-03-15T01:23:23.022Z,97412.00
2019-03-15T01:29:09.559Z,97537.00
2019-03-15T01:31:50.957Z,97531.00
2019-03-15T01:34:32.528Z,97494.00
2019-03-15T01:46:28.578Z,97543.00
2019-03-15T01:49:28.224Z,97538.00
2019-03-15T01:52:27.819Z,97540.00
2019-03-15T01:58:44.265Z,97604.00
2019-03-15T02:01:25.543Z,97570.00
2019-03-15T02:13:22.345Z,97551.00
2019-03-15T02:16:10.693Z,97554.00
2019-03-15T02:18:57.800Z,97563.00
2019-03-15T02:21:46.092Z,97567.00
2019-03-15T02:24:34.138Z,97573.00
2019-03-15T02:27:22.485Z,97573.00
2019-03-15T02:30:10.781Z,97575.00
2019-03-15T02:32:58.001Z,97570.00
2019-03-15T02:35:47.056Z,97560.00
2019-03-15T02:38:36.652Z,97566.00
2019-03-15T02:41:24.923Z,97611.00
2019-03-15T02:44:13.280Z,97621.00
2019-03-15T02:47:01.588Z,97613.00
2019-03-15T02:49:49.947Z,97634.00
2019-03-15T02:52:37.769Z,97560.00
2019-03-15T02:55:19.034Z,97562.00
2019-03-15T03:01:07.015Z,97581.00
2019-03-15T03:03:48.570Z,97574.00
2019-03-15T03:06:30.134Z,97580.00
2019-03-15T03:09:10.809Z,97590.00
2019-03-15T03:11:52.233Z,97585.00
2019-03-15T03:14:32.873Z,97604.00
2019-03-15T03:20:17.835Z,97626.00
2019-03-15T03:22:59.079Z,97584.00
2019-03-15T03:25:39.984Z,97591.00
2019-03-15T03:28:21.405Z,97618.00
2019-03-15T03:31:02.790Z,97630.00
2019-03-15T03:39:51.111Z,97614.00
2019-03-15T03:42:39.400Z,97611.00
2019-03-15T03:45:27.715Z,97605.00
2019-03-15T03:48:51.251Z,97645.00
2019-03-15T03:54:22.040Z,97603.00
2019-03-15T03:57:03.502Z,97605.00
2019-03-15T03:59:44.787Z,97596.00
2019-03-15T04:02:26.137Z,97606.00
2019-03-15T04:05:26.170Z,97624.00
2019-03-15T04:08:06.850Z,97610.00
2019-03-15T04:10:47.735Z,97633.00
2019-03-15T04:16:33.735Z,97559.00
2019-03-15T04:22:20.037Z,97653.00
2019-03-15T04:25:00.885Z,97622.00
2019-03-15T04:30:59.445Z,97627.00
2019-03-15T04:33:40.078Z,97624.00
2019-03-15T04:36:20.995Z,97627.00
2019-03-15T04:39:02.467Z,97667.00
2019-03-15T04:41:43.520Z,97635.00
2019-03-15T04:44:24.324Z,97619.00
2019-03-15T04:47:05.785Z,97621.00
2019-03-15T04:49:46.401Z,97648.00
2019-03-15T04:52:46.034Z,97629.00
2019-03-15T04:58:32.524Z,97575.00
2019-03-15T05:04:50.384Z,97613.00
2019-03-15T05:07:31.044Z,97610.00
2019-03-15T05:19:27.990Z,97631.00
2019-03-15T05:22:09.303Z,97680.00
2019-03-15T05:27:54.968Z,97622.00
2019-03-15T05:30:54.697Z,97605.00
2019-03-15T05:33:35.437Z,97620.00
2019-03-15T05:39:21.493Z,97632.00
2019-03-15T05:42:21.746Z,97637.00
2019-03-15T05:45:03.252Z,97658.00
2019-03-15T05:54:11.673Z,97622.00
2019-03-15T05:56:53.071Z,97664.00
2019-03-15T06:18:10.390Z,97640.00
2019-03-15T06:20:51.110Z,97638.00
2019-03-15T06:29:52.254Z,97650.00
2019-03-15T06:32:21.035Z,97656.00
2019-03-15T06:34:50.096Z,97656.00
2019-03-15T06:37:18.821Z,97641.00
2019-03-15T06:39:47.893Z,97641.00
2019-03-15T06:42:16.684Z,97639.00
2019-03-15T06:44:57.338Z,97639.00
2019-03-15T06:47:15.972Z,97631.00
2019-03-15T06:49:44.691Z,97633.00
2019-03-15T06:52:13.402Z,97641.00
2019-03-15T06:54:42.137Z,97641.00
2019-03-15T06:57:10.885Z,97634.00
2019-03-15T06:59:39.619Z,97645.00
2019-03-15T07:02:08.518Z,97648.00
2019-03-15T07:04:37.246Z,97634.00
2019-03-15T07:07:05.966Z,97639.00
2019-03-15T07:09:34.690Z,97635.00
2019-03-15T07:12:09.415Z,97639.00
2019-03-15T07:14:34.167Z,97640.00
2019-03-15T07:17:02.959Z,97632.00
2019-03-15T07:19:31.701Z,97631.00
2019-03-15T07:22:00.466Z,97633.00
2019-03-15T07:24:29.211Z,97620.00
2019-03-15T07:27:11.722Z,97615.00
2019-03-15T07:29:28.376Z,97623.00
2019-03-15T07:31:57.206Z,97620.00
2019-03-15T07:34:25.930Z,97614.00
2019-03-15T07:36:55.495Z,97613.00
2019-03-15T07:39:26.600Z,97608.00
2019-03-15T07:41:54.914Z,97605.00
2019-03-15T07:44:23.658Z,97607.00
2019-03-15T07:46:52.402Z,97611.00
2019-03-15T07:49:21.398Z,97610.00
2019-03-15T07:51:50.121Z,97607.00
2019-03-15T07:54:18.847Z,97608.00
2019-03-15T07:56:47.566Z,97612.00
2019-03-15T07:59:16.286Z,97622.00
2019-03-15T08:01:45.010Z,97600.00
2019-03-15T08:04:17.164Z,97605.00
2019-03-15T08:06:44.198Z,97611.00
2019-03-15T08:09:12.918Z,97593.00
2019-03-15T08:11:41.630Z,97607.00
2019-03-15T08:14:10.333Z,97597.00
2019-03-15T08:16:39.049Z,97602.00
2019-03-15T08:19:07.765Z,97583.00
2019-03-15T08:21:36.771Z,97594.00
2019-03-15T08:24:05.478Z,97598.00
2019-03-15T08:26:34.445Z,97599.00
2019-03-15T08:29:09.274Z,97601.00
2019-03-15T08:31:36.329Z,97604.00
2019-03-15T08:34:05.691Z,97607.00
2019-03-15T08:36:34.505Z,97606.00
2019-03-15T08:39:04.122Z,97604.00
2019-03-15T08:41:32.976Z,97603.00
2019-03-15T08:44:01.704Z,97612.00
2019-03-15T08:46:30.548Z,97615.00
2019-03-15T08:48:59.527Z,97624.00
2019-03-15T08:51:28.262Z,97623.00
2019-03-15T08:53:57.094Z,97628.00
2019-03-15T08:56:26.385Z,97619.00
2019-03-15T08:58:55.223Z,97626.00
2019-03-15T09:01:24.115Z,97624.00
2019-03-15T09:03:52.863Z,97622.00
2019-03-15T09:06:21.886Z,97623.00
2019-03-15T09:08:50.657Z,97612.00
2019-03-15T09:11:19.417Z,97617.00
2019-03-15T09:13:49.413Z,97615.00
2019-03-15T09:16:18.574Z,97617.00
2019-03-15T09:18:47.359Z,97614.00
2019-03-15T09:21:16.102Z,97606.00
2019-03-15T09:23:44.886Z,97603.00
2019-03-15T09:26:13.642Z,97597.00
2019-03-15T09:28:42.642Z,97597.00
2019-03-15T09:31:11.390Z,97589.00
2019-03-15T09:33:40.361Z,97577.00
2019-03-15T09:36:09.107Z,97587.00
2019-03-15T09:38:37.895Z,97587.00
2019-03-15T09:41:06.805Z,97580.00
2019-03-15T09:43:35.587Z,97604.00
2019-03-15T09:46:04.323Z,97578.00
2019-03-15T09:48:33.034Z,97583.00
2019-03-15T09:51:01.749Z,97575.00
2019-03-15T09:53:30.465Z,97563.00
2019-03-15T09:55:59.559Z,97555.00
2019-03-15T09:58:28.542Z,97557.00
2019-03-15T10:00:57.878Z,97564.00
2019-03-15T10:03:26.770Z,97561.00
2019-03-15T10:05:55.515Z,97552.00
2019-03-15T10:08:24.280Z,97544.00
2019-03-15T10:10:53.016Z,97534.00
2019-03-15T10:13:21.733Z,97536.00
2019-03-15T10:15:50.657Z,97530.00
2019-03-15T10:18:19.474Z,97528.00
2019-03-15T10:20:48.207Z,97527.00
2019-03-15T10:23:16.894Z,97518.00
2019-03-15T10:25:48.507Z,97531.00
2019-03-15T10:28:16.075Z,97522.00
2019-03-15T10:30:44.799Z,97505.00
2019-03-15T10:33:13.527Z,97497.00
2019-03-15T10:35:42.246Z,97488.00
2019-03-15T10:38:11.074Z,97480.00
2019-03-15T10:40:39.951Z,97482.00
2019-03-15T10:43:08.678Z,97482.00
2019-03-15T10:45:37.402Z,97479.00
2019-03-15T10:48:08.138Z,97491.00
2019-03-15T10:50:36.614Z,97477.00
2019-03-15T10:53:05.398Z,97487.00
2019-03-15T10:55:34.130Z,97482.00
2019-03-15T10:58:02.857Z,97477.00
2019-03-15T11:00:31.658Z,97474.00
2019-03-15T11:03:00.392Z,97481.00
2019-03-15T11:05:29.199Z,97483.00
2019-03-15T11:07:57.923Z,97472.00
2019-03-15T11:10:30.588Z,97466.00
2019-03-15T11:12:59.355Z,97461.00
2019-03-15T11:15:28.106Z,97455.00
2019-03-15T11:17:56.845Z,97458.00
2019-03-15T11:20:25.565Z,97446.00
2019-03-15T11:22:54.276Z,97449.00
2019-03-15T11:25:23.004Z,97460.00
2019-03-15T11:27:51.970Z,97455.00
2019-03-15T11:30:20.687Z,97445.00
2019-03-15T11:32:49.421Z,97436.00
2019-03-15T11:35:21.021Z,97434.00
2019-03-15T11:37:48.559Z,97421.00
2019-03-15T11:40:19.142Z,97427.00
2019-03-15T11:42:47.742Z,97428.00
2019-03-15T11:45:16.474Z,97421.00
2019-03-15T11:48:02.026Z,97418.00
2019-03-15T11:50:15.760Z,97415.00
2019-03-15T11:52:44.494Z,97416.00
2019-03-15T11:55:13.237Z,97404.00
2019-03-15T11:57:41.976Z,97402.00
2019-03-15T12:00:11.368Z,97394.00
2019-03-15T12:02:40.358Z,97386.00
2019-03-15T12:05:09.115Z,97388.00
2019-03-15T12:07:37.855Z,97387.00
2019-03-15T12:10:06.766Z,97395.00
2019-03-15T12:12:35.524Z,97390.00
2019-03-15T12:15:04.878Z,97396.00
2019-03-15T12:17:33.617Z,97392.00
2019-03-15T12:20:02.315Z,97397.00
2019-03-15T12:22:31.047Z,97384.00
2019-03-15T12:24:59.774Z,97386.00
2019-03-15T12:27:28.503Z,97348.00
2019-03-15T12:29:57.218Z,97380.00
2019-03-15T12:32:26.022Z,97373.00
2019-03-15T12:38:08.371Z,97393.00
2019-03-15T12:40:56.653Z,97372.00
2019-03-15T12:43:44.957Z,97384.00
2019-03-15T12:49:40.706Z,97377.00
2019-03-15T12:55:29.183Z,97379.00
2019-03-15T12:58:10.676Z,97371.00
2019-03-15T13:00:51.489Z,97368.00
2019-03-15T13:03:32.245Z,97399.00
2019-03-15T13:06:12.953Z,97375.00
2019-03-15T13:08:53.637Z,97387.00
2019-03-15T13:11:34.346Z,97371.00
2019-03-15T13:14:15.754Z,97382.00
2019-03-15T13:16:56.686Z,97360.00
2019-03-15T13:19:37.421Z,97374.00
2019-03-15T13:22:18.263Z,97403.00
2019-03-15T13:24:59.688Z,97313.00
2019-03-15T13:27:41.257Z,97369.00
2019-03-15T13:30:22.689Z,97366.00
2019-03-15T13:33:03.433Z,97381.00
2019-03-15T13:35:44.757Z,97369.00
2019-03-15T13:38:26.117Z,97362.00
2019-03-15T13:41:07.697Z,97362.00
2019-03-15T13:43:49.018Z,97344.00
2019-03-15T13:46:29.807Z,97354.00
2019-03-15T13:49:11.159Z,97265.00
2019-03-15T13:51:52.299Z,97358.00
2019-03-15T13:54:32.840Z,97351.00
2019-03-15T13:57:21.219Z,97282.00
2019-03-15T13:59:56.213Z,97356.00
2019-03-15T14:05:25.938Z,97354.00
2019-03-15T14:08:11.928Z,97332.00
2019-03-15T14:10:50.278Z,97342.00
2019-03-15T14:13:31.151Z,97322.00
2019-03-15T14:16:12.695Z,97359.00
2019-03-15T14:18:54.204Z,97331.00
2019-03-15T14:21:35.026Z,97358.00
2019-03-15T14:24:15.820Z,97340.00
2019-03-15T14:27:01.684Z,97369.00
2019-03-15T14:29:43.347Z,97344.00
2019-03-15T14:32:24.494Z,97336.00
2019-03-15T14:35:05.500Z,97362.00
2019-03-15T14:37:46.293Z,97325.00
2019-03-15T14:40:27.657Z,97267.00
2019-03-15T14:43:09.197Z,97339.00
2019-03-15T14:45:49.873Z,97329.00
2019-03-15T14:48:30.784Z,97311.00
2019-03-15T14:51:11.854Z,97315.00
2019-03-15T14:53:52.578Z,97259.00
2019-03-15T14:56:34.042Z,97326.00
2019-03-15T14:59:15.648Z,97328.00
2019-03-15T15:01:56.412Z,97324.00
2019-03-15T15:04:37.560Z,97324.00
2019-03-15T15:07:18.282Z,97328.00
2019-03-15T15:09:59.906Z,97339.00
2019-03-15T15:12:40.596Z,97361.00
2019-03-15T15:15:21.587Z,97258.00
2019-03-15T15:18:02.336Z,97333.00
2019-03-15T15:20:43.934Z,97358.00
2019-03-15T15:23:24.687Z,97336.00
2019-03-15T15:26:05.892Z,97325.00
2019-03-15T15:28:47.078Z,97327.00
2019-03-15T15:31:28.453Z,97318.00
2019-03-15T15:34:09.138Z,97341.00
2019-03-15T15:36:50.398Z,97348.00
2019-03-15T15:39:31.187Z,97327.00
2019-03-15T15:42:12.666Z,97316.00
2019-03-15T15:47:45.243Z,97324.00
2019-03-15T15:50:27.239Z,97325.00
2019-03-15T15:53:10.949Z,97332.00
2019-03-15T15:55:51.131Z,97326.00
2019-03-15T16:01:16.576Z,97343.00
2019-03-15T16:06:47.278Z,97372.00
2019-03-15T16:09:28.744Z,97340.00
2019-03-15T16:12:09.991Z,97332.00
2019-03-15T16:14:53.598Z,97343.00
2019-03-15T16:17:35.128Z,97342.00
2019-03-15T16:20:15.896Z,97332.00
2019-03-15T16:22:56.612Z,97351.00
2019-03-15T16:25:38.128Z,97387.00
2019-03-15T16:28:30.836Z,97362.00
2019-03-15T16:33:47.588Z,97366.00
2019-03-15T16:36:28.966Z,97365.00
2019-03-15T16:41:54.183Z,97401.00
2019-03-15T16:44:35.623Z,97378.00
2019-03-15T16:47:16.324Z,97372.00
2019-03-15T16:49:57.377Z,97373.00
2019-03-15T16:55:27.940Z,97374.00
2019-03-15T16:58:09.461Z,97383.00
2019-03-15T17:06:25.664Z,97349.00
2019-03-15T17:09:06.728Z,97378.00
2019-03-15T17:11:48.217Z,97376.00
2019-03-15T17:20:11.167Z,97385.00
2019-03-15T17:22:52.432Z,97379.00
2019-03-15T17:28:25.301Z,97418.00
2019-03-15T17:31:10.041Z,97389.00
2019-03-15T17:36:33.551Z,97406.00
2019-03-15T17:39:15.030Z,97403.00
2019-03-15T17:41:55.692Z,97500.00
2019-03-15T17:44:37.183Z,97409.00
2019-03-15T17:47:17.914Z,97406.00
2019-03-15T17:52:47.368Z,97408.00
2019-03-15T17:55:28.713Z,97337.00
2019-03-15T17:58:09.471Z,97414.00
2019-03-15T18:00:53.829Z,97402.00
2019-03-15T18:03:34.510Z,97410.00
2019-03-15T18:06:15.980Z,97399.00
2019-03-15T18:08:56.821Z,97409.00
2019-03-15T18:11:37.916Z,97385.00
2019-03-15T18:14:19.312Z,97386.00
2019-03-15T18:16:59.949Z,97383.00
2019-03-15T18:19:40.827Z,97392.00
2019-03-15T18:22:22.259Z,97373.00
2019-03-15T18:25:02.959Z,97404.00
2019-03-15T18:27:44.119Z,97446.00
2019-03-15T18:30:25.028Z,97436.00
2019-03-15T18:33:06.602Z,97391.00
2019-03-15T18:35:47.902Z,97433.00
2019-03-15T18:38:29.530Z,97375.00
2019-03-15T18:41:11.744Z,97419.00
2019-03-15T18:43:53.056Z,97436.00
2019-03-15T18:46:34.434Z,97410.00
2019-03-15T18:52:05.262Z,97435.00
2019-03-15T18:54:46.040Z,97427.00
2019-03-15T18:57:27.435Z,97427.00
2019-03-15T19:00:08.840Z,97424.00
2019-03-15T19:02:50.358Z,97430.00
2019-03-15T19:05:31.146Z,97467.00
2019-03-15T19:08:12.067Z,97478.00
2019-03-15T19:10:53.189Z,97449.00
2019-03-15T19:13:33.977Z,97431.00
2019-03-15T19:21:56.138Z,97440.00
2019-03-15T19:24:36.825Z,97438.00
2019-03-15T19:27:18.035Z,97433.00
2019-03-15T19:29:58.749Z,97432.00
2019-03-15T19:32:40.245Z,97382.00
2019-03-15T19:38:04.416Z,97449.00
2019-03-15T19:40:45.818Z,97488.00
2019-03-15T19:43:29.312Z,97453.00
2019-03-15T19:46:10.004Z,97486.00
2019-03-15T19:48:51.629Z,97481.00
2019-03-15T19:51:33.084Z,97454.00
2019-03-15T19:54:14.671Z,97427.00
2019-03-15T19:56:55.963Z,97491.00
2019-03-15T20:02:23.329Z,97456.00
2019-03-15T20:07:48.965Z,97467.00
2019-03-15T20:13:13.929Z,97456.00
2019-03-15T20:18:38.581Z,97467.00
2019-03-15T20:21:20.307Z,97467.00
2019-03-15T20:24:04.901Z,97464.00
2019-03-15T20:26:46.413Z,97463.00
2019-03-15T20:35:02.826Z,97481.00
2019-03-15T20:40:30.476Z,97517.00
2019-03-15T20:43:11.310Z,97494.00
2019-03-15T20:45:52.556Z,97484.00
2019-03-15T20:48:33.357Z,97498.00
2019-03-15T20:51:14.267Z,97481.00
2019-03-15T20:53:55.749Z,97531.00
2019-03-15T20:56:37.374Z,97458.00
2019-03-15T21:02:08.282Z,97489.00
2019-03-15T21:04:49.142Z,97505.00
2019-03-15T21:07:33.134Z,97486.00
2019-03-15T21:15:52.193Z,97486.00
2019-03-15T21:18:33.717Z,97520.00
2019-03-15T21:21:14.385Z,97494.00
2019-03-15T21:23:59.002Z,97500.00
2019-03-15T21:26:40.030Z,97526.00
2019-03-15T21:29:21.460Z,97502.00
2019-03-15T21:32:02.917Z,97511.00
2019-03-15T21:34:44.153Z,97513.00
2019-03-15T21:37:24.837Z,97498.00
2019-03-15T21:40:05.575Z,97438.00
2019-03-15T21:42:46.480Z,97510.00
2019-03-15T21:45:27.145Z,97474.00
2019-03-15T21:48:08.236Z,97475.00
2019-03-15T21:50:49.748Z,97509.00
2019-03-15T21:53:31.157Z,97497.00
2019-03-15T21:58:54.805Z,97497.00
2019-03-15T22:07:11.334Z,97535.00
2019-03-15T22:09:55.608Z,97447.00
2019-03-15T22:12:37.041Z,97467.00
2019-03-15T22:15:17.757Z,97510.00
2019-03-15T22:18:01.386Z,97494.00
2019-03-15T22:20:42.700Z,97501.00
2019-03-15T22:23:24.313Z,97512.00
2019-03-15T22:26:06.038Z,97516.00
2019-03-15T22:28:49.986Z,97472.00
2019-03-15T22:31:31.366Z,97555.00
2019-03-15T22:34:12.072Z,97529.00
2019-03-15T22:36:53.024Z,97540.00
2019-03-15T22:39:34.391Z,97545.00
2019-03-15T22:42:15.236Z,97550.00
2019-03-15T22:47:47.434Z,97562.00
2019-03-15T22:50:28.157Z,97567.00
2019-03-15T22:53:09.435Z,97585.00
2019-03-15T22:55:50.099Z,97576.00
2019-03-15T22:58:31.495Z,97577.00
2019-03-15T23:01:12.663Z,97523.00
2019-03-15T23:03:53.555Z,97629.00
2019-03-15T23:06:34.912Z,97610.00
2019-03-15T23:09:16.154Z,97611.00
2019-03-15T23:11:56.881Z,97546.00
2019-03-15T23:14:37.470Z,97612.00
2019-03-15T23:17:18.883Z,97636.00
2019-03-15T23:20:01.501Z,97675.00
2019-03-15T23:22:42.090Z,97666.00
2019-03-15T23:25:23.619Z,97660.00
2019-03-15T23:28:04.994Z,97642.00
2019-03-15T23:30:45.964Z,97574.00
2019-03-15T23:33:27.254Z,97614.00
2019-03-15T23:36:07.910Z,97662.00
2019-03-15T23:38:48.493Z,97660.00
2019-03-15T23:41:29.291Z,97658.00
2019-03-15T23:44:10.158Z,97690.00
2019-03-15T23:46:51.643Z,97665.00
2019-03-15T23:49:33.239Z,97674.00
2019-03-15T23:52:14.679Z,97685.00
2019-03-15T23:54:55.301Z,97679.00
2019-03-15T23:57:36.822Z,97715.00
